Time;durP1;ratioP1;P1;durP2;ratioP2;P2;SDS_P1;SDS_P2;PMS_P1;PMS_P2;Temp;Humidity;BMP_temperature;BMP_pressure;BME280_temperature;BME280_humidity;BME280_pressure;Samples;Min_cycle;Max_cycle;Signal;HPM_P1;HPM_P2
2023/03/01 00:01:27;;;;;;;;;;;;;;;1.32;69.84;103126.47;5029165;28;19928;-68
2023/03/01 00:03:54;;;;;;;;;;;;;;;1.31;70.34;103126.50;5032493;28;19924;-66
2023/03/01 00:06:21;;;;;;;;;;;;;;;1.30;70.62;103125.66;5024326;28;19932;-68
2023/03/01 00:08:48;;;;;;;;;;;;;;;1.31;70.70;103123.91;5028719;28;19931;-66
2023/03/01 00:11:16;;;;;;;;;;;;;;;1.28;70.04;103117.06;5024376;28;20118;-66
2023/03/01 00:13:43;;;;;;;;;;;;;;;1.28;70.13;103119.66;5035507;28;19925;-65
2023/03/01 00:16:12;;;;;;;;;;;;;;;1.28;70.29;103122.25;5030357;28;19932;-64
2023/03/01 00:18:39;;;;;;;;;;;;;;;1.28;70.48;103124.00;5023783;28;19931;-66
2023/03/01 00:21:05;;;;;;;;;;;;;;;1.28;69.93;103117.06;5030394;28;20015;-66
2023/03/01 00:23:34;;;;;;;;;;;;;;;1.27;70.69;103112.78;5031267;28;19940;-66
2023/03/01 00:26:00;;;;;;;;;;;;;;;1.24;70.13;103109.41;5037930;28;19925;-66
2023/03/01 00:28:26;;;;;;;;;;;;;;;1.24;69.58;103099.91;5025726;28;20483;-66
2023/03/01 00:30:53;;;;;;;;;;;;;;;1.23;69.20;103099.94;5022240;28;19929;-67
2023/03/01 00:33:19;;;;;;;;;;;;;;;1.16;70.08;103101.81;5034179;28;19929;-65
2023/03/01 00:35:46;;;;;;;;;;;;;;;1.15;69.68;103108.69;5022753;28;19975;-66
2023/03/01 00:38:12;;;;;;;;;;;;;;;1.09;69.31;103101.06;5026118;28;20436;-69
2023/03/01 00:40:38;;;;;;;;;;;;;;;1.06;69.83;103102.84;5029064;28;20427;-66
2023/03/01 00:43:05;;;;;;;;;;;;;;;0.98;69.59;103103.84;5041679;28;19929;-66
2023/03/01 00:45:32;;;;;;;;;;;;;;;0.95;69.82;103103.06;5033605;28;19925;-65
2023/03/01 00:47:59;;;;;;;;;;;;;;;0.92;70.25;103096.22;5034206;28;19924;-65
2023/03/01 00:50:25;;;;;;;;;;;;;;;0.87;71.49;103102.34;5032086;28;19924;-64
2023/03/01 00:52:52;;;;;;;;;;;;;;;0.82;71.36;103104.16;5036430;28;19924;-66
2023/03/01 00:55:18;;;;;;;;;;;;;;;0.79;73.15;103097.31;5033504;28;19921;-65
2023/03/01 00:57:45;;;;;;;;;;;;;;;0.75;73.07;103091.34;5028055;28;19931;-65
2023/03/01 01:00:11;;;;;;;;;;;;;;;0.69;73.90;103090.59;5031787;28;19925;-65
2023/03/01 01:02:38;;;;;;;;;;;;;;;0.66;73.92;103082.91;5030333;28;20456;-67
2023/03/01 01:05:04;;;;;;;;;;;;;;;0.63;73.21;103081.22;5026878;28;20386;-66
2023/03/01 01:07:31;;;;;;;;;;;;;;;0.62;73.38;103078.66;5039643;28;20026;-64
2023/03/01 01:09:58;;;;;;;;;;;;;;;0.58;73.38;103070.97;5016724;28;19924;-65
2023/03/01 01:12:24;;;;;;;;;;;;;;;0.57;74.27;103078.75;5035190;28;19928;-65
2023/03/01 01:14:51;;;;;;;;;;;;;;;0.53;74.88;103075.38;5020271;28;19925;-67
2023/03/01 01:17:17;;;;;;;;;;;;;;;0.51;75.00;103076.25;5036101;28;19952;-67
2023/03/01 01:19:43;;;;;;;;;;;;;;;0.50;75.64;103069.41;5008440;28;19921;-65
2023/03/01 01:22:10;;;;;;;;;;;;;;;0.49;73.73;103065.09;5029928;28;19925;-67
2023/03/01 01:24:36;;;;;;;;;;;;;;;0.47;72.94;103066.84;5036890;28;19925;-65
2023/03/01 01:27:02;;;;;;;;;;;;;;;0.43;75.13;103068.63;5021062;28;19971;-66
2023/03/01 01:29:29;;;;;;;;;;;;;;;0.43;73.66;103067.78;5023243;28;20370;-65
2023/03/01 01:31:55;;;;;;;;;;;;;;;0.41;74.88;103059.22;5018925;28;19920;-66
2023/03/01 01:34:21;;;;;;;;;;;;;;;0.37;72.83;103053.25;5036448;28;20011;-68
2023/03/01 01:36:49;;;;;;;;;;;;;;;0.36;73.31;103052.41;5021358;28;19929;-66
2023/03/01 01:39:16;;;;;;;;;;;;;;;0.33;75.22;103047.31;5023597;28;19956;-66
2023/03/01 01:41:42;;;;;;;;;;;;;;;0.34;73.67;103054.16;5031886;28;20473;-65
2023/03/01 01:44:20;;;;;;;;;;;;;;;0.29;74.31;103057.69;5034975;28;20367;-65
2023/03/01 01:47:01;;;;;;;;;;;;;;;0.32;74.44;103055.06;5036381;28;20024;-67
2023/03/01 01:49:38;;;;;;;;;;;;;;;0.29;74.32;103055.94;5026216;28;19925;-67
2023/03/01 01:52:27;;;;;;;;;;;;;;;0.27;75.96;103060.28;5037803;28;20429;-66
2023/03/01 01:55:08;;;;;;;;;;;;;;;0.30;74.19;103046.50;5014259;28;19931;-67
2023/03/01 01:57:40;;;;;;;;;;;;;;;0.22;75.09;103054.38;5034491;28;19924;-65
2023/03/01 02:00:08;;;;;;;;;;;;;;;0.24;75.03;103057.78;5020323;28;19970;-66
2023/03/01 02:02:36;;;;;;;;;;;;;;;0.25;75.02;103056.88;5037775;28;19925;-66
2023/03/01 02:05:11;;;;;;;;;;;;;;;0.25;74.84;103056.88;5035191;28;19924;-66
2023/03/01 02:07:39;;;;;;;;;;;;;;;0.25;76.13;103058.63;5032111;28;19925;-68
2023/03/01 02:10:05;;;;;;;;;;;;;;;0.27;74.57;103056.88;5028518;28;19932;-66
2023/03/01 02:12:32;;;;;;;;;;;;;;;0.27;75.43;103046.53;5024776;28;19921;-66
2023/03/01 02:14:58;;;;;;;;;;;;;;;0.26;76.21;103047.44;5033297;28;19924;-67
2023/03/01 02:17:24;;;;;;;;;;;;;;;0.25;76.22;103046.56;5023715;28;20341;-66
2023/03/01 02:19:57;;;;;;;;;;;;;;;0.25;76.40;103049.13;5031517;28;19927;-69
2023/03/01 02:22:34;;;;;;;;;;;;;;;0.28;76.09;103050.84;5029932;28;20262;-67
2023/03/01 02:25:00;;;;;;;;;;;;;;;0.27;76.01;103041.38;5027286;28;19975;-66
2023/03/01 02:27:33;;;;;;;;;;;;;;;0.27;76.03;103039.63;5026499;28;20362;-68
2023/03/01 02:29:59;;;;;;;;;;;;;;;0.24;76.13;103038.88;5021848;28;19921;-65
2023/03/01 02:32:26;;;;;;;;;;;;;;;0.23;75.91;103035.41;5030874;28;20007;-66
2023/03/01 02:34:53;;;;;;;;;;;;;;;0.23;76.60;103042.31;5016637;28;19952;-65
2023/03/01 02:37:24;;;;;;;;;;;;;;;0.21;76.52;103029.41;5035476;28;19925;-68
2023/03/01 02:39:54;;;;;;;;;;;;;;;0.18;76.86;103037.22;5038564;28;19924;-67
2023/03/01 02:42:23;;;;;;;;;;;;;;;0.16;77.11;103036.41;5029637;28;19920;-66
2023/03/01 02:44:53;;;;;;;;;;;;;;;0.13;76.15;103032.13;5029716;28;19921;-66
2023/03/01 02:47:19;;;;;;;;;;;;;;;0.10;76.59;103027.03;5024757;28;19973;-66
2023/03/01 02:49:46;;;;;;;;;;;;;;;0.06;76.76;103032.25;5041163;28;19982;-65
2023/03/01 02:52:15;;;;;;;;;;;;;;;0.04;77.06;103028.84;5034773;28;20329;-66
2023/03/01 02:54:46;;;;;;;;;;;;;;;0.01;77.36;103028.91;5027927;28;20269;-65
2023/03/01 02:57:13;;;;;;;;;;;;;;;-0.01;77.60;103028.91;5040161;28;19974;-69
2023/03/01 02:59:40;;;;;;;;;;;;;;;-0.05;76.97;103029.84;5037791;28;19932;-67
2023/03/01 03:02:07;;;;;;;;;;;;;;;-0.06;77.49;103022.97;5034622;28;20378;-66
2023/03/01 03:04:33;;;;;;;;;;;;;;;-0.05;78.39;103022.09;5034206;28;19925;-68
2023/03/01 03:07:00;;;;;;;;;;;;;;;-0.08;76.82;103014.41;5030912;28;20206;-68
2023/03/01 03:09:26;;;;;;;;;;;;;;;-0.08;76.47;103012.69;5032771;28;19920;-66
2023/03/01 03:11:52;;;;;;;;;;;;;;;-0.06;75.80;103012.63;5038187;28;19920;-66
2023/03/01 03:14:18;;;;;;;;;;;;;;;-0.07;76.47;103008.38;5038177;28;19936;-67
2023/03/01 03:16:46;;;;;;;;;;;;;;;-0.10;77.91;103017.03;5029110;28;20297;-66
2023/03/01 03:19:12;;;;;;;;;;;;;;;-0.13;77.13;103019.63;5040635;28;19927;-66
2023/03/01 03:21:39;;;;;;;;;;;;;;;-0.14;77.13;103014.50;5034951;28;20335;-66
2023/03/01 03:24:05;;;;;;;;;;;;;;;-0.12;77.20;103016.16;5037356;28;19921;-65
2023/03/01 03:26:32;;;;;;;;;;;;;;;-0.16;78.87;103011.94;5012562;28;20299;-66
2023/03/01 03:28:58;;;;;;;;;;;;;;;-0.22;78.97;103002.59;5045521;28;19925;-71
2023/03/01 03:31:25;;;;;;;;;;;;;;;-0.21;77.49;103011.16;5058100;28;19908;-70
2023/03/01 03:33:51;;;;;;;;;;;;;;;-0.22;77.60;103012.03;5060893;28;19920;-70
2023/03/01 03:36:19;;;;;;;;;;;;;;;-0.23;78.43;103007.75;5068319;28;19935;-69
2023/03/01 03:38:45;;;;;;;;;;;;;;;-0.26;78.33;103002.63;5055234;28;19958;-69
2023/03/01 03:41:12;;;;;;;;;;;;;;;-0.27;78.11;103004.38;5050972;28;19943;-70
2023/03/01 03:43:40;;;;;;;;;;;;;;;-0.25;77.95;103010.34;5064876;28;19925;-70
2023/03/01 03:46:06;;;;;;;;;;;;;;;-0.26;79.89;103008.63;5049154;28;19929;-65
2023/03/01 03:48:34;;;;;;;;;;;;;;;-0.24;77.74;103000.88;5036761;28;20010;-65
2023/03/01 03:51:01;;;;;;;;;;;;;;;-0.23;77.53;103003.44;5031062;28;19935;-65
2023/03/01 03:53:28;;;;;;;;;;;;;;;-0.23;77.63;102997.44;5030157;28;19925;-66
2023/03/01 03:55:55;;;;;;;;;;;;;;;-0.26;78.24;103008.63;5022922;28;20443;-64
2023/03/01 03:58:22;;;;;;;;;;;;;;;-0.31;79.89;103001.88;5022246;28;19966;-68
2023/03/01 04:00:50;;;;;;;;;;;;;;;-0.37;79.95;102997.66;5037083;28;19932;-66
2023/03/01 04:03:18;;;;;;;;;;;;;;;-0.37;79.87;102999.34;5052669;28;20023;-65
2023/03/01 04:05:45;;;;;;;;;;;;;;;-0.38;80.95;102997.66;5042898;28;19925;-66
2023/03/01 04:08:11;;;;;;;;;;;;;;;-0.41;79.94;102998.56;5036631;28;19954;-65
2023/03/01 04:10:43;;;;;;;;;;;;;;;-0.45;80.28;102997.75;5021628;28;19924;-66
2023/03/01 04:13:11;;;;;;;;;;;;;;;-0.46;81.42;103001.19;5031085;28;19932;-66
2023/03/01 04:15:37;;;;;;;;;;;;;;;-0.49;81.13;102993.50;5038527;28;19940;-66
2023/03/01 04:18:04;;;;;;;;;;;;;;;-0.49;80.86;102995.22;5034465;28;19948;-65
2023/03/01 04:20:33;;;;;;;;;;;;;;;-0.50;78.94;102990.94;5032319;28;20443;-68
2023/03/01 04:23:15;;;;;;;;;;;;;;;-0.53;80.22;102989.28;5025925;28;19924;-68
2023/03/01 04:25:46;;;;;;;;;;;;;;;-0.52;80.98;102987.53;5036137;28;19939;-66
2023/03/01 04:28:12;;;;;;;;;;;;;;;-0.54;80.80;102984.97;5045481;28;19931;-66
2023/03/01 04:30:38;;;;;;;;;;;;;;;-0.59;81.34;102973.88;5032625;28;20016;-65
2023/03/01 04:33:06;;;;;;;;;;;;;;;-0.60;79.70;102973.03;5042831;28;20346;-66
2023/03/01 04:35:32;;;;;;;;;;;;;;;-0.62;80.46;102976.50;5029470;28;19920;-65
2023/03/01 04:37:59;;;;;;;;;;;;;;;-0.63;80.34;102985.09;5034967;28;20035;-65
2023/03/01 04:40:25;;;;;;;;;;;;;;;-0.68;79.50;102976.59;5024254;28;20028;-65
2023/03/01 04:42:51;;;;;;;;;;;;;;;-0.65;81.28;102977.41;5045974;28;19921;-65
2023/03/01 04:45:18;;;;;;;;;;;;;;;-0.67;81.89;102978.28;5033740;28;20377;-65
2023/03/01 04:47:45;;;;;;;;;;;;;;;-0.69;82.16;102974.88;5022475;28;19932;-65
2023/03/01 04:50:14;;;;;;;;;;;;;;;-0.73;83.38;102975.78;5038169;28;19924;-64
2023/03/01 04:52:40;;;;;;;;;;;;;;;-0.71;82.54;102972.31;5026447;28;20124;-64
2023/03/01 04:55:07;;;;;;;;;;;;;;;-0.72;81.63;102972.34;5031463;28;20278;-64
2023/03/01 04:57:34;;;;;;;;;;;;;;;-0.72;84.20;102969.78;5033814;28;19921;-64
2023/03/01 05:00:00;;;;;;;;;;;;;;;-0.70;82.19;102975.78;5049241;28;20158;-64
2023/03/01 05:02:27;;;;;;;;;;;;;;;-0.68;82.01;102964.56;5017303;28;20333;-65
2023/03/01 05:04:57;;;;;;;;;;;;;;;-0.70;81.25;102965.47;5032340;28;19928;-64
2023/03/01 05:07:24;;;;;;;;;;;;;;;-0.70;80.58;102961.16;5045158;28;19925;-64
2023/03/01 05:09:51;;;;;;;;;;;;;;;-0.71;81.86;102954.28;5035228;28;20325;-64
2023/03/01 05:12:20;;;;;;;;;;;;;;;-0.66;80.76;102952.50;5045103;28;19924;-64
2023/03/01 05:14:46;;;;;;;;;;;;;;;-0.69;80.78;102951.69;5027902;28;19932;-64
2023/03/01 05:17:12;;;;;;;;;;;;;;;-0.69;80.30;102949.09;5034514;28;19924;-64
2023/03/01 05:19:39;;;;;;;;;;;;;;;-0.73;80.66;102939.72;5041110;28;19942;-66
2023/03/01 05:22:05;;;;;;;;;;;;;;;-0.75;81.17;102939.72;5037635;28;20353;-65
2023/03/01 05:24:35;;;;;;;;;;;;;;;-0.81;82.98;102937.25;5039394;28;19986;-65
2023/03/01 05:27:02;;;;;;;;;;;;;;;-0.82;82.04;102927.81;5034050;28;19932;-65
2023/03/01 05:29:29;;;;;;;;;;;;;;;-0.84;82.24;102921.84;5036761;28;19929;-64
2023/03/01 05:31:57;;;;;;;;;;;;;;;-0.84;81.60;102922.69;5027170;28;19921;-67
2023/03/01 05:34:25;;;;;;;;;;;;;;;-0.83;82.42;102918.38;5033610;28;19925;-64
2023/03/01 05:36:54;;;;;;;;;;;;;;;-0.83;82.99;102928.69;5025140;28;19932;-67
2023/03/01 05:39:22;;;;;;;;;;;;;;;-0.86;82.55;102908.97;5038199;28;19925;-65
2023/03/01 05:41:52;;;;;;;;;;;;;;;-0.86;82.55;102908.97;5031661;28;20036;-67
2023/03/01 05:44:20;;;;;;;;;;;;;;;-0.92;82.63;102918.50;5033157;28;20407;-65
2023/03/01 05:46:46;;;;;;;;;;;;;;;-0.91;100.00;65435.88;5037461;28;20697;-64
2023/03/01 05:49:13;;;;;;;;;;;;;;;-145.50;100.00;65435.88;5031316;28;20373;-64
2023/03/01 05:51:41;;;;;;;;;;;;;;;-145.50;100.00;65435.88;5026211;28;20386;-65
2023/03/01 05:54:08;;;;;;;;;;;;;;;-145.50;100.00;65435.88;5042760;28;20000;-64
2023/03/01 05:56:35;;;;;;;;;;;;;;;-145.50;100.00;65435.88;5036997;28;20301;-63
2023/03/01 05:59:02;;;;;;;;;;;;;;;-145.50;100.00;65435.88;5039360;28;19979;-67
2023/03/01 06:01:29;;;;;;;;;;;;;;;-145.50;100.00;65435.88;5023687;28;20594;-64
2023/03/01 06:03:56;;;;;;;;;;;;;;;-145.50;100.00;65435.88;5028011;28;19927;-66
2023/03/01 06:06:23;;;;;;;;;;;;;;;-145.50;100.00;65435.88;5031253;28;20393;-64
2023/03/01 06:08:51;;;;;;;;;;;;;;;-145.50;100.00;65435.88;5028333;28;20027;-64
2023/03/01 06:11:17;;;;;;;;;;;;;;;-145.50;100.00;65435.88;5018860;28;20300;-64
2023/03/01 06:13:44;;;;;;;;;;;;;;;-145.50;100.00;65435.88;5024840;28;19925;-63
2023/03/01 06:16:10;;;;;;;;;;;;;;;-145.50;100.00;65435.88;5045210;28;19921;-64
2023/03/01 06:18:37;;;;;;;;;;;;;;;-145.50;100.00;65435.88;5024232;28;20001;-66
2023/03/01 06:21:04;;;;;;;;;;;;;;;-145.50;100.00;65435.88;5039480;28;20413;-67
2023/03/01 06:23:31;;;;;;;;;;;;;;;-145.50;100.00;65435.88;5031676;28;19925;-65
2023/03/01 06:25:57;;;;;;;;;;;;;;;-145.50;100.00;65435.88;5032465;28;19924;-67
2023/03/01 06:28:24;;;;;;;;;;;;;;;-145.50;100.00;65435.88;5026169;28;20274;-66
2023/03/01 06:30:51;;;;;;;;;;;;;;;-145.50;100.00;65435.88;5032420;28;19931;-64
2023/03/01 06:33:19;;;;;;;;;;;;;;;-145.50;100.00;65435.88;5039831;28;20695;-63
2023/03/01 06:35:46;;;;;;;;;;;;;;;-145.50;100.00;65435.88;5024223;28;19960;-66
2023/03/01 06:38:14;;;;;;;;;;;;;;;-145.50;100.00;65435.88;5030436;28;19929;-65
2023/03/01 06:40:41;;;;;;;;;;;;;;;-145.50;100.00;65435.88;5041227;28;19925;-65
2023/03/01 06:43:07;;;;;;;;;;;;;;;-145.50;100.00;65435.88;5033942;28;20301;-65
2023/03/01 06:45:33;;;;;;;;;;;;;;;-145.50;100.00;65435.88;5030285;28;19931;-64
2023/03/01 06:48:04;;;;;;;;;;;;;;;-145.50;100.00;65435.88;5039293;28;20446;-65
2023/03/01 06:50:30;;;;;;;;;;;;;;;-145.50;100.00;65435.88;5033128;28;19948;-66
2023/03/01 06:52:57;;;;;;;;;;;;;;;-145.50;100.00;65435.88;5030049;28;19931;-65
2023/03/01 06:55:24;;;;;;;;;;;;;;;-145.50;100.00;65435.88;5024911;28;19960;-66
2023/03/01 06:57:54;;;;;;;;;;;;;;;-145.50;100.00;65435.88;5040448;28;19929;-67
2023/03/01 07:00:20;;;;;;;;;;;;;;;-145.50;100.00;65435.88;5037251;28;20369;-66
2023/03/01 07:02:47;;;;;;;;;;;;;;;-145.50;100.00;65435.88;5033422;28;19935;-65
2023/03/01 07:05:13;;;;;;;;;;;;;;;-145.50;100.00;65435.88;5017997;28;19929;-65
2023/03/01 07:07:40;;;;;;;;;;;;;;;-145.50;100.00;65435.88;5038243;28;19932;-66
2023/03/01 07:10:06;;;;;;;;;;;;;;;-145.50;100.00;65435.88;5030205;28;19921;-65
2023/03/01 07:12:33;;;;;;;;;;;;;;;-145.50;100.00;65435.88;5031487;28;19924;-67
2023/03/01 07:14:59;;;;;;;;;;;;;;;-0.91;83.76;102915.06;5036711;28;19932;-65
2023/03/01 07:17:25;;;;;;;;;;;;;;;-0.72;89.37;102921.66;5028756;28;20377;-64
2023/03/01 07:19:52;;;;;;;;;;;;;;;-0.70;91.31;102922.50;5034616;28;19929;-67
2023/03/01 07:22:18;;;;;;;;;;;;;;;-0.67;91.77;102922.41;5035525;28;19924;-65
2023/03/01 07:24:44;;;;;;;;;;;;;;;-0.61;92.22;102914.63;5040152;28;19925;-64
2023/03/01 07:27:11;;;;;;;;;;;;;;;-0.49;92.76;102915.28;5031686;28;20656;-66
2023/03/01 07:29:37;;;;;;;;;;;;;;;-0.46;92.93;102921.25;5041753;28;20309;-65
2023/03/01 07:32:04;;;;;;;;;;;;;;;-0.40;93.93;102918.59;5037753;28;19933;-65
2023/03/01 07:34:30;;;;;;;;;;;;;;;-0.35;93.24;102922.81;5037367;28;19921;-66
2023/03/01 07:36:57;;;;;;;;;;;;;;;-0.31;93.00;102920.19;5039842;28;19970;-66
2023/03/01 07:39:23;;;;;;;;;;;;;;;-0.27;93.04;102921.00;5042207;28;19928;-65
2023/03/01 07:41:50;;;;;;;;;;;;;;;-0.19;91.88;102919.13;5035979;28;19939;-65
2023/03/01 07:44:17;;;;;;;;;;;;;;;-0.13;91.94;102919.03;5033472;28;19986;-66
2023/03/01 07:46:44;;;;;;;;;;;;;;;-0.11;93.35;102924.16;5040614;28;20016;-65
2023/03/01 07:49:10;;;;;;;;;;;;;;;-0.04;92.07;102924.03;5030190;28;20285;-64
2023/03/01 07:51:36;;;;;;;;;;;;;;;0.05;88.83;102928.16;5041343;28;19970;-65
2023/03/01 07:54:03;;;;;;;;;;;;;;;0.10;91.37;102928.97;5048135;28;20427;-65
2023/03/01 07:56:29;;;;;;;;;;;;;;;0.10;92.67;102923.78;5032476;28;19925;-65
2023/03/01 07:58:56;;;;;;;;;;;;;;;0.13;91.74;102928.03;5047281;28;20321;-65
2023/03/01 08:01:22;;;;;;;;;;;;;;;0.16;92.08;102931.44;5035976;28;19932;-67
2023/03/01 08:03:49;;;;;;;;;;;;;;;0.21;93.79;102930.50;5045591;28;20562;-66
2023/03/01 08:06:16;;;;;;;;;;;;;;;0.26;92.80;102928.69;5045278;28;19927;-64
2023/03/01 08:08:43;;;;;;;;;;;;;;;0.29;93.07;102926.88;5031534;28;19951;-66
2023/03/01 08:11:13;;;;;;;;;;;;;;;0.35;91.74;102931.94;5031403;28;19979;-65
2023/03/01 08:13:40;;;;;;;;;;;;;;;0.41;92.52;102940.44;5027636;28;20003;-65
2023/03/01 08:16:08;;;;;;;;;;;;;;;0.44;92.87;102941.25;5036469;28;19921;-65
2023/03/01 08:18:34;;;;;;;;;;;;;;;0.52;90.70;102941.09;5042847;28;19978;-64
2023/03/01 08:21:02;;;;;;;;;;;;;;;0.53;92.51;102941.06;5034477;28;19998;-65
2023/03/01 08:23:29;;;;;;;;;;;;;;;0.57;92.97;102931.53;5039589;28;20305;-65
2023/03/01 08:26:03;;;;;;;;;;;;;;;0.66;89.59;102939.09;5029167;28;19925;-65
2023/03/01 08:28:29;;;;;;;;;;;;;;;0.70;91.73;102930.41;5031360;28;20389;-65
2023/03/01 08:30:56;;;;;;;;;;;;;;;0.76;92.23;102929.41;5020447;28;19921;-65
2023/03/01 08:33:22;;;;;;;;;;;;;;;0.78;93.15;102925.06;5031662;28;20360;-65
2023/03/01 08:35:48;;;;;;;;;;;;;;;0.81;93.94;102926.75;5033257;28;19924;-65
2023/03/01 08:38:15;;;;;;;;;;;;;;;0.86;91.02;102925.75;5035440;28;19921;-65
2023/03/01 08:40:41;;;;;;;;;;;;;;;0.89;92.88;102920.53;5033729;28;19925;-66
2023/03/01 08:43:08;;;;;;;;;;;;;;;0.93;94.11;102916.16;5020263;28;19925;-66
2023/03/01 08:45:34;;;;;;;;;;;;;;;0.99;92.52;102916.88;5032493;28;19932;-64
2023/03/01 08:48:00;;;;;;;;;;;;;;;1.04;90.92;102916.78;5027229;28;19921;-66
2023/03/01 08:50:27;;;;;;;;;;;;;;;1.10;90.33;102915.81;5037250;28;20317;-65
2023/03/01 08:52:53;;;;;;;;;;;;;;;1.15;91.06;102904.47;5036046;28;19925;-65
2023/03/01 08:55:19;;;;;;;;;;;;;;;1.21;91.48;102912.97;5027549;28;19921;-65
2023/03/01 08:57:46;;;;;;;;;;;;;;;1.26;90.23;102909.41;5035786;28;20478;-65
2023/03/01 09:00:14;;;;;;;;;;;;;;;1.32;90.36;102895.50;5039561;28;20342;-65
2023/03/01 09:02:41;;;;;;;;;;;;;;;1.38;88.79;102906.53;5035804;28;19921;-65
2023/03/01 09:05:07;;;;;;;;;;;;;;;1.42;89.22;102902.13;5034055;28;20407;-65
2023/03/01 09:07:34;;;;;;;;;;;;;;;1.48;86.00;102891.63;5011241;28;20309;-65
2023/03/01 09:10:00;;;;;;;;;;;;;;;1.54;85.60;102888.91;5026680;28;20016;-65
2023/03/01 09:12:26;;;;;;;;;;;;;;;1.62;82.50;102893.91;5033631;28;20337;-65
2023/03/01 09:14:53;;;;;;;;;;;;;;;1.68;83.10;102890.31;5037876;28;19921;-64
2023/03/01 09:17:21;;;;;;;;;;;;;;;1.75;82.68;102895.28;5026573;28;19928;-65
2023/03/01 09:19:48;;;;;;;;;;;;;;;1.81;83.31;102889.13;5044940;28;20321;-65
2023/03/01 09:22:14;;;;;;;;;;;;;;;1.90;80.16;102894.06;5027836;28;19921;-68
2023/03/01 09:24:41;;;;;;;;;;;;;;;1.95;80.71;102896.53;5026838;28;19932;-65
2023/03/01 09:27:08;;;;;;;;;;;;;;;2.01;79.89;102887.75;5037230;28;19924;-65
2023/03/01 09:29:37;;;;;;;;;;;;;;;2.09;79.51;102893.59;5041831;28;19928;-65
2023/03/01 09:32:03;;;;;;;;;;;;;;;2.15;78.79;102886.47;5034163;28;19929;-65
2023/03/01 09:34:30;;;;;;;;;;;;;;;2.22;76.64;102884.59;5040122;28;19957;-65
2023/03/01 09:36:57;;;;;;;;;;;;;;;2.31;75.31;102880.91;5027791;28;19975;-65
2023/03/01 09:39:23;;;;;;;;;;;;;;;2.37;74.49;102871.22;5034294;28;19932;-67
2023/03/01 09:41:57;;;;;;;;;;;;;;;2.46;75.19;102877.03;5038707;28;19924;-65
2023/03/01 09:44:40;;;;;;;;;;;;;;;2.48;74.94;102876.09;5041119;28;20428;-66
2023/03/01 09:47:17;;;;;;;;;;;;;;;2.60;74.59;102868.88;5034859;28;19979;-65
2023/03/01 09:49:48;;;;;;;;;;;;;;;2.67;74.32;102862.63;5047780;28;20518;-66
2023/03/01 09:52:21;;;;;;;;;;;;;;;2.74;73.42;102866.72;5011940;28;19921;-66
2023/03/01 09:54:49;;;;;;;;;;;;;;;2.84;72.84;102860.34;5030848;28;19924;-65
2023/03/01 09:57:26;;;;;;;;;;;;;;;2.92;72.87;102854.94;5041385;28;19920;-64
2023/03/01 10:00:01;;;;;;;;;;;;;;;3.03;72.08;102849.44;5043549;28;19925;-65
2023/03/01 10:02:38;;;;;;;;;;;;;;;3.14;70.18;102848.22;5031724;28;19921;-65
2023/03/01 10:05:18;;;;;;;;;;;;;;;3.27;70.69;102843.47;5040322;28;19925;-66
2023/03/01 10:07:51;;;;;;;;;;;;;;;3.40;70.52;102843.09;5034994;28;19925;-65
2023/03/01 10:10:31;;;;;;;;;;;;;;;3.54;69.07;102840.88;5045612;28;19927;-65
2023/03/01 10:13:00;;;;;;;;;;;;;;;3.64;67.05;102842.25;5048252;28;19921;-65
2023/03/01 10:15:35;;;;;;;;;;;;;;;3.79;66.84;102843.50;5051673;28;20364;-65
2023/03/01 10:18:10;;;;;;;;;;;;;;;3.94;66.98;102837.78;5026504;28;20022;-65
2023/03/01 10:20:46;;;;;;;;;;;;;;;4.09;66.02;102851.94;5030354;28;19928;-65
2023/03/01 10:23:12;;;;;;;;;;;;;;;4.19;64.18;102836.03;5037266;28;20384;-66
2023/03/01 10:25:47;;;;;;;;;;;;;;;4.34;63.39;102832.88;5035390;28;19936;-66
2023/03/01 10:28:16;;;;;;;;;;;;;;;4.48;64.16;102824.56;5057342;28;19921;-65
2023/03/01 10:30:43;;;;;;;;;;;;;;;4.61;62.63;102831.00;5017780;28;19929;-66
2023/03/01 10:33:20;;;;;;;;;;;;;;;4.74;61.54;102818.38;5030428;28;20401;-66
2023/03/01 10:35:47;;;;;;;;;;;;;;;4.87;61.98;102813.56;5042246;28;19925;-66
2023/03/01 10:38:15;;;;;;;;;;;;;;;5.01;62.04;102800.84;5056721;28;19920;-65
2023/03/01 10:40:53;;;;;;;;;;;;;;;5.08;60.64;102804.91;5039331;28;20810;-65
2023/03/01 10:43:19;;;;;;;;;;;;;;;5.19;60.19;102806.22;5035368;28;19925;-66
2023/03/01 10:45:46;;;;;;;;;;;;;;;5.38;60.50;102806.31;5045329;28;20335;-68
2023/03/01 10:48:21;;;;;;;;;;;;;;;5.47;59.63;102801.56;5031988;28;20344;-65
2023/03/01 10:50:49;;;;;;;;;;;;;;;5.68;59.20;102794.56;5038864;28;19925;-65
2023/03/01 10:53:24;;;;;;;;;;;;;;;5.85;59.03;102799.06;5042231;28;19921;-65
2023/03/01 10:56:10;;;;;;;;;;;;;;;5.98;57.61;102790.72;5023642;28;19979;-64
2023/03/01 10:58:38;;;;;;;;;;;;;;;6.16;58.23;102787.31;5028248;28;20541;-65
2023/03/01 11:01:16;;;;;;;;;;;;;;;6.27;57.64;102782.47;5039124;28;19978;-66
2023/03/01 11:03:43;;;;;;;;;;;;;;;6.40;55.63;102779.28;5049653;28;20427;-66
2023/03/01 11:06:12;;;;;;;;;;;;;;;6.57;56.52;102787.19;5040118;28;19935;-66
2023/03/01 11:08:46;;;;;;;;;;;;;;;6.67;55.39;102784.97;5041985;28;19955;-66
2023/03/01 11:11:15;;;;;;;;;;;;;;;6.86;55.57;102780.56;5045247;28;19929;-65
2023/03/01 11:14:06;;;;;;;;;;;;;;;6.97;55.15;102784.41;5039004;28;19925;-66
2023/03/01 11:16:58;;;;;;;;;;;;;;;7.05;54.41;102782.28;5031955;28;20019;-65
2023/03/01 11:19:24;;;;;;;;;;;;;;;7.27;54.67;102784.66;5033902;28;20573;-65
2023/03/01 11:21:56;;;;;;;;;;;;;;;7.35;53.07;102790.38;5018960;28;19925;-65
2023/03/01 11:24:30;;;;;;;;;;;;;;;7.51;53.49;102796.50;5030815;28;20413;-65
2023/03/01 11:27:00;;;;;;;;;;;;;;;7.63;53.36;102783.72;5049171;28;19924;-65
2023/03/01 11:29:26;;;;;;;;;;;;;;;7.79;52.38;102781.16;5033823;28;19921;-65
2023/03/01 11:32:00;;;;;;;;;;;;;;;7.85;51.86;102773.84;5036495;28;19927;-65
2023/03/01 11:34:39;;;;;;;;;;;;;;;8.08;52.88;102779.63;5034216;28;19925;-65
2023/03/01 11:37:11;;;;;;;;;;;;;;;8.27;52.08;102775.09;5046596;28;19920;-65
2023/03/01 11:39:47;;;;;;;;;;;;;;;8.37;52.23;102770.22;5033393;28;19928;-65
2023/03/01 11:42:33;;;;;;;;;;;;;;;8.55;50.75;102757.91;5035821;28;19921;-65
2023/03/01 11:45:01;;;;;;;;;;;;;;;8.70;51.67;102753.56;5040805;28;19975;-65
2023/03/01 11:47:49;;;;;;;;;;;;;;;8.87;49.66;102752.63;5039009;28;19928;-66
2023/03/01 11:50:28;;;;;;;;;;;;;;;9.00;48.86;102765.88;5025927;28;19921;-66
2023/03/01 11:53:01;;;;;;;;;;;;;;;9.05;48.33;102766.41;5032468;28;19925;-67
2023/03/01 11:55:40;;;;;;;;;;;;;;;9.07;48.71;102754.09;5026352;28;19928;-68
2023/03/01 11:58:13;;;;;;;;;;;;;;;9.08;49.17;102753.16;5043038;28;19927;-64
2023/03/01 12:01:01;;;;;;;;;;;;;;;9.20;47.93;102752.44;5040775;28;20326;-67
2023/03/01 12:03:44;;;;;;;;;;;;;;;9.25;49.60;102749.53;5019113;28;20404;-67
2023/03/01 12:06:26;;;;;;;;;;;;;;;9.41;47.14;102752.97;5024907;28;20027;-66
2023/03/01 12:09:02;;;;;;;;;;;;;;;9.55;49.87;102749.50;5027668;28;19950;-66
2023/03/01 12:11:41;;;;;;;;;;;;;;;9.61;47.27;102735.19;5030382;28;19921;-66
2023/03/01 12:14:17;;;;;;;;;;;;;;;9.72;47.91;102742.38;5020793;28;19925;-65
2023/03/01 12:17:00;;;;;;;;;;;;;;;9.77;48.51;102738.56;5037033;28;19929;-66
2023/03/01 12:19:48;;;;;;;;;;;;;;;9.92;47.28;102741.16;5034257;28;19925;-67
2023/03/01 12:22:30;;;;;;;;;;;;;;;10.00;46.23;102733.69;5043693;28;19927;-64
2023/03/01 12:25:15;;;;;;;;;;;;;;;10.01;46.79;102728.31;5026205;28;19921;-66
2023/03/01 12:27:48;;;;;;;;;;;;;;;10.03;46.49;102721.19;5039828;28;19934;-66
2023/03/01 12:30:27;;;;;;;;;;;;;;;10.13;48.90;102724.09;5041378;28;19966;-68
2023/03/01 12:32:56;;;;;;;;;;;;;;;10.19;47.01;102722.84;5042228;28;19947;-66
2023/03/01 12:35:35;;;;;;;;;;;;;;;10.28;45.74;102719.66;5037341;28;19929;-65
2023/03/01 12:38:20;;;;;;;;;;;;;;;10.32;45.26;102715.94;5039056;28;20403;-65
2023/03/01 12:40:55;;;;;;;;;;;;;;;10.27;46.43;102717.97;5036197;28;19925;-64
2023/03/01 12:43:28;;;;;;;;;;;;;;;10.31;44.51;102714.25;5038901;28;20403;-66
2023/03/01 12:46:04;;;;;;;;;;;;;;;10.37;45.97;102711.25;5012968;28;19960;-66
2023/03/01 12:48:44;;;;;;;;;;;;;;;10.47;44.07;102712.31;5032109;28;19940;-65
2023/03/01 12:51:13;;;;;;;;;;;;;;;10.55;42.84;102697.88;5045254;28;19928;-65